Time;durP1;ratioP1;P1;durP2;ratioP2;P2;SDS_P1;SDS_P2;PMS_P1;PMS_P2;Temp;Humidity;BMP_temperature;BMP_pressure;BME280_temperature;BME280_humidity;BME280_pressure;Samples;Min_cycle;Max_cycle;Signal;HPM_P1;HPM_P2
2021/07/21 00:01:40;;;;;;;;;22.00;18.50;;;;;24.76;44.48;101575.63;5000753;28;45381;-86
2021/07/21 00:04:05;;;;;;;;;19.25;16.00;;;;;24.74;44.79;101576.72;4998748;28;45322;-85
2021/07/21 00:06:31;;;;;;;;;18.00;15.75;;;;;24.70;44.58;101567.19;4999070;28;45342;-85
2021/07/21 00:08:57;;;;;;;;;15.00;13.75;;;;;24.68;45.13;101569.09;4997528;28;45331;-85
2021/07/21 00:14:18;;;;;;;;;18.50;15.25;;;;;24.61;45.36;101575.81;5013091;28;45299;-85
2021/07/21 00:16:50;;;;;;;;;17.50;16.00;;;;;24.55;44.81;101569.91;4998697;28;45235;-86
2021/07/21 00:21:59;;;;;;;;;13.25;13.25;;;;;24.52;45.47;101571.94;5002042;28;45576;-86
2021/07/21 00:24:25;;;;;;;;;22.25;18.75;;;;;24.49;45.31;101577.50;4999115;28;45264;-86
2021/07/21 00:26:50;;;;;;;;;16.75;14.75;;;;;24.47;44.99;101577.56;4996472;28;45335;-85
2021/07/21 00:29:15;;;;;;;;;16.00;15.00;;;;;24.44;45.73;101580.44;4997719;28;47492;-86
2021/07/21 00:31:40;;;;;;;;;15.25;13.75;;;;;24.41;45.31;101580.63;4999101;28;52195;-86
2021/07/21 00:34:06;;;;;;;;;17.25;15.75;;;;;24.39;45.75;101577.19;4997531;28;45356;-85
2021/07/21 00:36:31;;;;;;;;;19.50;18.75;;;;;24.36;45.53;101580.09;4992938;28;45466;-85
2021/07/21 00:38:57;;;;;;;;;18.00;17.50;;;;;24.33;45.87;101572.22;5010239;28;48068;-86
2021/07/21 00:41:22;;;;;;;;;22.75;16.00;;;;;24.31;46.30;101588.41;5012263;28;45384;-87
2021/07/21 00:43:48;;;;;;;;;17.75;17.75;;;;;24.25;45.93;101578.09;4998884;28;45419;-87
2021/07/21 00:46:13;;;;;;;;;21.00;17.75;;;;;24.23;46.23;101580.00;4996745;28;45230;-87
2021/07/21 00:48:38;;;;;;;;;13.75;12.00;;;;;24.22;46.03;101583.66;4997390;28;47081;-86
2021/07/21 00:51:04;;;;;;;;;18.00;15.75;;;;;24.17;46.17;101580.41;4997920;28;45384;-86
2021/07/21 00:53:29;;;;;;;;;17.75;16.75;;;;;24.15;46.23;101579.66;4994674;28;45340;-86
2021/07/21 00:55:55;;;;;;;;;19.50;19.25;;;;;24.12;46.42;101580.72;5000183;28;45410;-87
2021/07/21 00:58:21;;;;;;;;;22.25;20.50;;;;;24.09;46.67;101580.03;4994736;28;46222;-87
2021/07/21 01:00:46;;;;;;;;;17.50;17.50;;;;;24.05;46.90;101579.38;4998283;28;45307;-86
2021/07/21 01:03:12;;;;;;;;;24.25;22.25;;;;;24.04;46.72;101584.81;4998210;28;45476;-87
2021/07/21 01:05:42;;;;;;;;;23.75;22.50;;;;;24.02;46.60;101584.03;4994057;28;45488;-86
2021/07/21 01:08:09;;;;;;;;;24.50;20.50;;;;;24.00;46.73;101591.31;4999304;28;46296;-86
2021/07/21 01:10:35;;;;;;;;;24.25;19.50;;;;;23.99;46.58;101589.59;4998886;28;45488;-83
2021/07/21 01:13:25;;;;;;;;;19.50;19.50;;;;;23.93;46.99;101589.03;4996170;28;45550;-84
2021/07/21 01:16:07;;;;;;;;;20.75;18.50;;;;;23.92;47.35;101589.13;4996345;28;45269;-84
2021/07/21 01:18:38;;;;;;;;;20.25;19.00;;;;;23.89;46.90;101587.50;4997489;28;45470;-84
2021/07/21 01:21:36;;;;;;;;;20.25;19.00;;;;;23.86;47.41;101587.69;4996890;28;45195;-84
2021/07/21 01:24:13;;;;;;;;;16.50;14.25;;;;;23.83;47.35;101579.00;4989049;28;45388;-83
2021/07/21 01:27:00;;;;;;;;;17.00;15.75;;;;;23.81;47.54;101579.13;4984267;28;45433;-84
2021/07/21 01:29:29;;;;;;;;;20.50;17.75;;;;;23.79;47.19;101581.03;5001056;28;45454;-84
2021/07/21 01:31:57;;;;;;;;;17.50;16.75;;;;;23.72;47.90;101572.47;5002565;28;45477;-84
2021/07/21 01:34:30;;;;;;;;;16.75;15.00;;;;;23.72;47.25;101577.84;5003613;28;45331;-83
2021/07/21 01:36:58;;;;;;;;;16.50;15.50;;;;;23.66;47.99;101572.84;5006805;28;45282;-84
2021/07/21 01:39:33;;;;;;;;;21.00;18.25;;;;;23.62;47.99;101582.03;5014134;28;47093;-84
2021/07/21 01:42:03;;;;;;;;;18.50;18.00;;;;;23.58;47.69;101585.00;5002787;28;45546;-84
2021/07/21 01:44:36;;;;;;;;;20.50;16.50;;;;;23.53;48.49;101577.25;4999183;28;45546;-84
2021/07/21 01:47:03;;;;;;;;;21.50;16.25;;;;;23.49;48.10;101586.41;5013298;28;45531;-83
2021/07/21 01:49:33;;;;;;;;;25.75;24.75;;;;;23.47;48.59;101588.31;5004143;28;46811;-84
2021/07/21 01:52:02;;;;;;;;;20.50;18.00;;;;;23.43;48.28;101584.97;5004060;28;45598;-83
2021/07/21 01:54:30;;;;;;;;;21.00;18.25;;;;;23.41;48.89;101591.38;5002222;28;45348;-84
2021/07/21 01:56:58;;;;;;;;;24.75;19.50;;;;;23.39;48.57;101594.13;5002299;28;45281;-82
2021/07/21 01:59:25;;;;;;;;;20.75;17.50;;;;;23.39;48.77;101595.94;5001317;28;47060;-83
2021/07/21 02:01:52;;;;;;;;;24.50;20.00;;;;;23.38;49.24;101592.38;5004267;28;45443;-83
2021/07/21 02:04:17;;;;;;;;;21.75;17.00;;;;;23.36;49.03;101593.44;5003649;28;45574;-84
2021/07/21 02:06:44;;;;;;;;;17.00;16.00;;;;;23.33;48.94;101599.81;5003699;28;45348;-84
2021/07/21 02:09:10;;;;;;;;;22.75;21.75;;;;;23.32;49.09;101596.31;5002931;28;46142;-84
2021/07/21 02:11:39;;;;;;;;;20.00;18.50;;;;;23.29;49.66;101598.31;4999271;28;45598;-83
2021/07/21 02:14:05;;;;;;;;;23.00;19.00;;;;;23.27;49.48;101606.41;5013649;28;45462;-84
2021/07/21 02:16:34;;;;;;;;;28.75;20.50;;;;;23.26;48.98;101601.16;5003899;28;45383;-83
2021/07/21 02:19:01;;;;;;;;;19.50;17.00;;;;;23.21;49.54;101595.22;5003348;28;46394;-84
2021/07/21 02:21:28;;;;;;;;;17.25;17.25;;;;;23.21;49.44;101592.56;5003272;28;45633;-84
2021/07/21 02:23:53;;;;;;;;;17.75;17.75;;;;;23.17;49.84;101601.69;5002584;28;45498;-83
2021/07/21 02:26:20;;;;;;;;;18.75;18.00;;;;;23.10;49.44;101599.41;5003005;28;45407;-83
2021/07/21 02:28:47;;;;;;;;;22.25;21.75;;;;;23.09;49.32;101604.81;5003677;28;46208;-83
2021/07/21 02:31:26;;;;;;;;;17.50;17.25;;;;;23.07;49.49;101606.72;5011212;28;45404;-83
2021/07/21 02:33:58;;;;;;;;;20.50;19.50;;;;;23.06;49.55;101599.66;5006233;28;45976;-82
2021/07/21 02:36:25;;;;;;;;;18.50;17.50;;;;;23.04;49.61;101604.25;4998751;28;45519;-83
2021/07/21 02:38:52;;;;;;;;;18.25;17.50;;;;;23.02;49.72;101601.66;4997811;28;49552;-83
2021/07/21 02:41:18;;;;;;;;;25.00;17.50;;;;;22.99;49.99;101599.16;4998530;28;45200;-83
2021/07/21 02:43:43;;;;;;;;;19.75;18.50;;;;;22.95;50.02;101600.25;5001672;28;45341;-83
2021/07/21 02:46:09;;;;;;;;;17.25;17.25;;;;;22.93;50.21;101598.63;4999809;28;45573;-83
2021/07/21 02:48:34;;;;;;;;;19.50;17.50;;;;;22.90;50.05;101603.19;4998561;28;47218;-82
2021/07/21 02:51:09;;;;;;;;;17.75;17.75;;;;;22.89;50.06;101601.50;4998095;28;45513;-83
2021/07/21 02:53:39;;;;;;;;;17.00;16.00;;;;;22.87;50.18;101603.38;4979008;28;45401;-82
2021/07/21 02:56:13;;;;;;;;;25.25;21.50;;;;;22.85;50.38;101613.28;5009209;28;45559;-84
2021/07/21 02:59:03;;;;;;;;;27.50;25.75;;;;;22.84;50.50;101613.41;5000682;28;46064;-85
2021/07/21 03:01:32;;;;;;;;;20.25;16.25;;;;;22.81;50.28;101611.75;4998090;28;45549;-84
2021/07/21 03:04:01;;;;;;;;;14.50;10.00;;;;;22.80;50.25;101611.84;4999613;28;45534;-82
2021/07/21 03:06:28;;;;;;;;;23.25;21.50;;;;;22.79;50.34;101615.47;4999651;28;45500;-83
2021/07/21 03:08:53;;;;;;;;;20.50;20.00;;;;;22.78;50.57;101616.41;4996305;28;46386;-82
2021/07/21 03:11:21;;;;;;;;;18.75;17.00;;;;;22.77;50.40;101620.88;4997973;28;45329;-83
2021/07/21 03:13:53;;;;;;;;;26.75;22.50;;;;;22.75;50.56;101621.94;4999790;28;45230;-83
2021/07/21 03:16:27;;;;;;;;;22.00;22.00;;;;;22.72;50.62;101622.13;4999495;28;45501;-83
2021/07/21 03:18:57;;;;;;;;;20.50;20.00;;;;;22.70;50.51;101616.84;4999000;28;46306;-83
2021/07/21 03:21:24;;;;;;;;;22.25;20.00;;;;;22.69;50.94;101620.44;4998814;28;45318;-83
2021/07/21 03:23:50;;;;;;;;;29.50;23.50;;;;;22.67;50.41;101619.72;4996819;28;45966;-82
2021/07/21 03:26:18;;;;;;;;;26.00;22.00;;;;;22.64;50.27;101615.41;4997964;28;45456;-83
2021/07/21 03:28:46;;;;;;;;;22.75;17.50;;;;;22.63;50.79;101618.16;5000807;28;45417;-83
2021/07/21 03:31:12;;;;;;;;;22.00;18.75;;;;;22.60;50.80;101613.84;4999000;28;45416;-83
2021/07/21 03:33:40;;;;;;;;;26.75;20.50;;;;;22.60;50.97;101623.66;4998265;28;45465;-83
2021/07/21 03:36:07;;;;;;;;;19.75;19.75;;;;;22.59;50.99;101629.94;4998922;28;45449;-83
2021/07/21 03:38:34;;;;;;;;;27.25;25.00;;;;;22.56;50.89;101619.44;4994788;28;47472;-83
2021/07/21 03:41:00;;;;;;;;;23.75;22.00;;;;;22.54;51.00;101621.34;5001198;28;45451;-83
2021/07/21 03:43:26;;;;;;;;;22.25;20.25;;;;;22.50;51.52;101618.00;4999907;28;45503;-84
2021/07/21 03:45:56;;;;;;;;;27.25;25.00;;;;;22.47;51.52;101612.81;4999742;28;45500;-82
2021/07/21 03:48:24;;;;;;;;;24.25;22.50;;;;;22.42;51.31;101615.72;4998725;28;46353;-83
2021/07/21 03:50:53;;;;;;;;;22.25;19.25;;;;;22.41;51.64;101616.69;4995198;28;45821;-83
2021/07/21 03:53:19;;;;;;;;;27.25;21.25;;;;;22.37;52.02;101608.94;4994860;28;45354;-84
2021/07/21 03:55:45;;;;;;;;;25.75;18.50;;;;;22.34;51.82;101617.97;4998965;28;45295;-84
2021/07/21 03:58:12;;;;;;;;;29.25;25.75;;;;;22.32;52.22;101617.22;4998503;28;46069;-83
2021/07/21 04:00:37;;;;;;;;;26.00;22.00;;;;;22.29;52.12;101619.19;4998838;28;45572;-84
2021/07/21 04:03:05;;;;;;;;;25.50;21.25;;;;;22.28;52.05;101620.97;4998168;28;45332;-84
2021/07/21 04:05:31;;;;;;;;;21.00;21.00;;;;;22.26;51.99;101622.88;4994701;28;45355;-84
2021/07/21 04:07:57;;;;;;;;;37.25;33.25;;;;;22.26;52.14;101622.88;5000707;28;46167;-83
2021/07/21 04:10:26;;;;;;;;;32.00;27.50;;;;;22.26;53.23;101620.19;4998062;28;45393;-83
2021/07/21 04:12:54;;;;;;;;;28.00;22.50;;;;;22.24;53.20;101619.44;4998386;28;45668;-84
2021/07/21 04:15:23;;;;;;;;;29.50;25.50;;;;;22.22;53.14;101624.00;4996604;28;45470;-83
2021/07/21 04:17:50;;;;;;;;;32.50;27.50;;;;;22.19;53.13;101625.00;4995414;28;45298;-83
2021/07/21 04:20:16;;;;;;;;;24.00;21.00;;;;;22.18;52.88;101622.41;4996702;28;45376;-83
2021/07/21 04:22:42;;;;;;;;;25.75;20.75;;;;;22.16;53.26;101627.81;4999521;28;45396;-83
2021/07/21 04:25:12;;;;;;;;;25.25;24.75;;;;;22.15;53.46;101635.91;5000371;28;45558;-84
2021/07/21 04:27:40;;;;;;;;;31.50;29.50;;;;;22.14;53.17;101635.03;5000514;28;45503;-83
2021/07/21 04:30:06;;;;;;;;;32.50;27.25;;;;;22.14;53.78;101636.84;5007763;28;45406;-84
2021/07/21 04:32:32;;;;;;;;;25.00;25.00;;;;;22.12;53.08;101636.94;4993863;28;45403;-83
2021/07/21 04:34:58;;;;;;;;;19.00;18.25;;;;;22.12;53.48;101631.63;5000006;28;45474;-83
2021/07/21 04:37:24;;;;;;;;;33.50;27.75;;;;;22.12;53.54;101636.94;4997698;28;45480;-83
2021/07/21 04:39:54;;;;;;;;;34.75;28.75;;;;;22.13;53.37;101644.00;4997854;28;45493;-84
2021/07/21 04:42:20;;;;;;;;;38.00;31.25;;;;;22.14;53.54;101639.50;4996129;28;45194;-84
2021/07/21 04:44:46;;;;;;;;;28.75;26.00;;;;;22.18;53.24;101643.75;4994628;28;45626;-83
2021/07/21 04:47:12;;;;;;;;;30.25;26.75;;;;;22.19;53.47;101648.13;4997837;28;46804;-84
2021/07/21 04:49:41;;;;;;;;;29.50;27.00;;;;;22.20;52.96;101655.19;4998975;28;45422;-83
2021/07/21 04:52:07;;;;;;;;;27.00;23.75;;;;;22.22;53.47;101653.34;4997985;28;45372;-84
2021/07/21 04:54:33;;;;;;;;;32.75;28.75;;;;;22.24;52.96;101656.78;4998435;28;45358;-84
2021/07/21 04:56:59;;;;;;;;;31.00;24.75;;;;;22.25;53.19;101653.16;5006635;28;48140;-84
2021/07/21 04:59:24;;;;;;;;;24.25;21.00;;;;;22.27;53.09;101657.47;4994236;28;45328;-84
2021/07/21 05:01:50;;;;;;;;;30.50;28.75;;;;;22.30;52.94;101658.25;4999996;28;45378;-84
2021/07/21 05:04:17;;;;;;;;;27.50;25.00;;;;;22.31;52.92;101660.84;4997170;28;45329;-85
2021/07/21 05:06:43;;;;;;;;;35.00;31.75;;;;;22.33;53.56;101664.25;4995369;28;46181;-83
2021/07/21 05:09:08;;;;;;;;;28.25;26.50;;;;;22.34;52.86;101665.16;4995774;28;45508;-83
2021/07/21 05:11:33;;;;;;;;;29.00;25.25;;;;;22.34;52.95;101670.47;4994186;28;45394;-84
2021/07/21 05:13:59;;;;;;;;;36.00;33.25;;;;;22.34;53.23;101668.66;5002084;28;45502;-82
2021/07/21 05:16:24;;;;;;;;;28.25;25.75;;;;;22.34;52.89;101665.16;4999112;28;45420;-83
2021/07/21 05:18:50;;;;;;;;;27.25;26.00;;;;;22.34;53.43;101675.81;5002587;28;45345;-84
2021/07/21 05:21:15;;;;;;;;;29.00;28.25;;;;;22.33;53.04;101674.94;5000105;28;45404;-85
2021/07/21 05:23:40;;;;;;;;;32.00;31.00;;;;;22.37;53.44;101675.63;4994890;28;45452;-83
2021/07/21 05:26:11;;;;;;;;;31.75;27.75;;;;;22.41;53.11;101671.88;4990755;28;45348;-79
2021/07/21 05:28:39;;;;;;;;;31.00;29.00;;;;;22.41;53.19;101682.53;4997265;28;45375;-88
2021/07/21 05:31:04;;;;;;;;;35.00;31.75;;;;;22.41;53.21;101680.72;4996662;28;45671;-82
2021/07/21 05:33:31;;;;;;;;;31.75;27.00;;;;;22.45;53.11;101687.63;4995582;28;45334;-82
2021/07/21 05:35:56;;;;;;;;;31.50;28.25;;;;;22.47;53.43;101685.69;4995295;28;46378;-81
2021/07/21 05:38:22;;;;;;;;;31.25;28.25;;;;;22.52;53.00;101695.28;4993984;28;45305;-80
2021/07/21 05:40:47;;;;;;;;;37.75;32.25;;;;;22.56;52.88;101688.81;5000033;28;45341;-87
2021/07/21 05:43:13;;;;;;;;;32.75;31.75;;;;;22.61;52.75;101694.75;5006527;28;45561;-79
2021/07/21 05:45:38;;;;;;;;;35.00;28.50;;;;;22.64;52.82;101695.47;5001852;28;47699;-80
2021/07/21 05:48:04;;;;;;;;;17.00;15.00;;;;;22.71;52.63;101695.97;4994364;28;45463;-79
2021/07/21 05:50:30;;;;;;;;;33.25;31.00;;;;;22.75;52.81;101697.53;4990979;28;45443;-80
2021/07/21 05:52:56;;;;;;;;;32.25;25.75;;;;;22.80;52.41;101700.78;4998602;28;45370;-80
2021/07/21 05:55:22;;;;;;;;;26.00;24.00;;;;;22.86;52.49;101704.94;4995749;28;45489;-78
2021/07/21 05:57:47;;;;;;;;;21.50;18.25;;;;;22.90;52.34;101706.47;5005531;28;45889;-78
2021/07/21 06:00:13;;;;;;;;;35.50;29.25;;;;;22.97;52.26;101712.31;5103596;23;45472;-78
2021/07/21 06:02:38;;;;;;;;;34.50;28.75;;;;;23.02;51.57;101710.28;4997609;28;45432;-78
2021/07/21 06:05:06;;;;;;;;;27.00;25.25;;;;;23.05;51.40;101713.66;4997822;28;47168;-76
2021/07/21 06:07:31;;;;;;;;;27.50;24.50;;;;;23.11;51.41;101718.63;5002927;28;48033;-80
2021/07/21 06:09:56;;;;;;;;;26.25;24.50;;;;;23.17;51.31;101719.22;5011255;28;45731;-84
2021/07/21 06:12:22;;;;;;;;;29.50;27.00;;;;;23.20;51.30;101711.91;5017251;28;45405;-81
2021/07/21 06:14:47;;;;;;;;;33.75;27.25;;;;;23.21;51.25;101718.94;5016835;28;45624;-80
2021/07/21 06:17:13;;;;;;;;;36.50;31.25;;;;;23.22;51.34;101723.38;5001405;28;45305;-81
2021/07/21 06:19:39;;;;;;;;;30.50;27.25;;;;;23.27;51.62;101729.28;5016414;28;45470;-77
2021/07/21 06:22:05;;;;;;;;;30.00;27.00;;;;;23.33;51.13;101730.75;5027151;28;45478;-84
2021/07/21 06:24:30;;;;;;;;;28.75;26.25;;;;;23.39;50.92;101724.19;5017307;28;46521;-84
2021/07/21 06:26:56;;;;;;;;;39.00;30.75;;;;;23.45;50.51;101731.84;5013923;28;45460;-83
2021/07/21 06:29:22;;;;;;;;;36.00;32.50;;;;;23.50;50.67;101732.41;5024926;28;45373;-84
2021/07/21 06:31:47;;;;;;;;;60.25;41.25;;;;;23.56;50.72;101734.75;5009564;28;45485;-82
2021/07/21 06:34:13;;;;;;;;;31.25;30.50;;;;;23.61;50.11;101743.34;5015379;28;46178;-82
2021/07/21 06:36:38;;;;;;;;;37.50;32.00;;;;;23.66;50.35;101749.28;5015824;28;45510;-81
2021/07/21 06:39:04;;;;;;;;;35.50;28.25;;;;;23.65;49.84;101747.56;5015950;28;45368;-85
2021/07/21 06:41:30;;;;;;;;;27.00;26.75;;;;;23.63;50.38;101743.28;5016290;28;45396;-80
2021/07/21 06:43:59;;;;;;;;;34.50;30.50;;;;;23.66;50.29;101743.06;5001772;28;46312;-81
2021/07/21 06:46:25;;;;;;;;;36.50;31.50;;;;;23.71;50.04;101751.69;5019136;28;45470;-82
2021/07/21 06:48:52;;;;;;;;;38.75;33.00;;;;;23.75;49.52;101750.59;5003983;28;45486;-80
2021/07/21 06:51:17;;;;;;;;;35.00;29.75;;;;;23.81;49.61;101752.03;5004256;28;45455;-82
2021/07/21 06:53:43;;;;;;;;;30.75;29.00;;;;;23.86;49.68;101755.28;5000989;28;46038;-82
2021/07/21 06:56:09;;;;;;;;;31.25;28.00;;;;;23.91;49.49;101758.56;5000347;28;45439;-80
2021/07/21 06:58:34;;;;;;;;;34.25;29.75;;;;;23.94;48.88;101758.38;5006725;28;45506;-82
2021/07/21 07:00:59;;;;;;;;;30.75;28.25;;;;;24.02;48.93;101761.44;5010323;28;45540;-83
2021/07/21 07:03:25;;;;;;;;;31.50;29.75;;;;;24.08;48.90;101762.88;5001777;28;62127;-83
2021/07/21 07:05:50;;;;;;;;;34.25;30.50;;;;;24.13;48.46;101756.28;5000696;28;45598;-82
2021/07/21 07:08:15;;;;;;;;;38.75;33.25;;;;;24.19;48.56;101763.06;4999645;28;45221;-83
2021/07/21 07:10:41;;;;;;;;;36.00;32.00;;;;;24.24;48.03;101766.34;5005852;28;45398;-78
2021/07/21 07:13:06;;;;;;;;;30.00;30.00;;;;;24.29;48.37;101755.38;5009177;28;46124;-78
2021/07/21 07:15:32;;;;;;;;;31.75;31.25;;;;;24.34;48.03;101748.75;5011284;28;45301;-79
2021/07/21 07:17:59;;;;;;;;;37.00;33.25;;;;;24.43;48.18;101765.19;5001986;28;45396;-78
2021/07/21 07:20:24;;;;;;;;;32.50;28.25;;;;;24.48;48.38;101764.00;4997959;28;45350;-77
2021/07/21 07:22:50;;;;;;;;;39.50;28.50;;;;;24.55;47.62;101759.09;5001920;28;46476;-80
2021/07/21 07:25:15;;;;;;;;;31.00;29.50;;;;;24.59;47.78;101757.94;5003379;28;45445;-80
2021/07/21 07:27:41;;;;;;;;;33.00;28.50;;;;;24.66;47.38;101755.75;5003529;28;45289;-79
2021/07/21 07:30:06;;;;;;;;;38.50;30.25;;;;;24.69;47.57;101752.88;5003669;28;45391;-80
2021/07/21 07:32:32;;;;;;;;;32.50;30.25;;;;;24.76;47.17;101760.41;4998818;28;45341;-81
2021/07/21 07:41:58;;;;;;;;;26.25;23.75;;;;;24.96;46.50;101747.56;4974238;28;45394;-81
2021/07/21 07:44:39;;;;;;;;;30.25;27.25;;;;;25.01;46.55;101751.66;4932791;28;45492;-85
2021/07/21 07:47:10;;;;;;;;;25.75;23.50;;;;;25.18;46.04;101755.94;4934155;28;45313;-85
2021/07/21 07:49:57;;;;;;;;;22.00;21.75;;;;;25.30;46.34;101754.28;4931865;28;45457;-84
2021/07/21 07:52:51;;;;;;;;;;;;;;;;;;;;;
2021/07/21 07:56:15;;;;;;;;;28.25;28.00;;;;;25.39;46.14;101734.06;4883857;28;76710;-83
2021/07/21 07:58:41;;;;;;;;;30.00;28.75;;;;;25.51;45.47;101743.09;4911637;28;45395;-84
2021/07/21 08:01:06;;;;;;;;;33.50;28.50;;;;;25.67;45.40;101751.81;4929548;28;45559;-84
2021/07/21 08:03:32;;;;;;;;;32.25;31.00;;;;;25.77;45.23;101757.41;4936128;28;45421;-84
2021/07/21 08:05:59;;;;;;;;;29.25;24.50;;;;;25.84;44.81;101750.66;4942395;28;46235;-84
2021/07/21 08:08:25;;;;;;;;;26.25;25.50;;;;;25.92;44.77;101753.69;4933415;28;45643;-84
2021/07/21 08:10:50;;;;;;;;;30.50;24.00;;;;;25.99;44.44;101752.31;4917827;28;45395;-74
2021/07/21 08:13:15;;;;;;;;;34.25;29.75;;;;;26.06;43.71;101758.13;4929345;28;45630;-74
2021/07/21 08:15:41;;;;;;;;;28.50;28.50;;;;;26.12;42.84;101756.81;4933627;28;46230;-74
2021/07/21 08:18:06;;;;;;;;;23.25;21.75;;;;;26.18;42.83;101743.84;4931805;28;45503;-78
2021/07/21 08:20:32;;;;;;;;;24.25;22.50;;;;;26.33;42.23;101755.31;4949347;28;45464;-78
2021/07/21 08:22:57;;;;;;;;;23.00;20.00;;;;;26.43;42.44;101753.72;4978592;28;45417;-78
2021/07/21 08:25:24;;;;;;;;;26.50;20.50;;;;;26.54;42.08;101760.16;4975350;28;45914;-77
2021/07/21 08:27:50;;;;;;;;;27.25;25.00;;;;;26.64;42.08;101756.69;4972845;28;45469;-77
2021/07/21 08:30:18;;;;;;;;;29.75;26.25;;;;;26.73;41.77;101757.88;4973145;28;45433;-77
2021/07/21 08:32:48;;;;;;;;;26.75;23.50;;;;;26.82;41.61;101756.34;4972882;28;45441;-79
2021/07/21 08:35:14;;;;;;;;;31.75;28.25;;;;;26.94;41.43;101759.97;4971184;28;47351;-77
2021/07/21 08:37:41;;;;;;;;;29.25;27.25;;;;;27.05;41.25;101765.38;4972368;28;45448;-77
2021/07/21 08:40:07;;;;;;;;;25.00;24.00;;;;;27.14;40.91;101763.88;4972282;28;45489;-77
2021/07/21 08:42:33;;;;;;;;;22.25;21.25;;;;;27.19;40.64;101767.06;4972284;28;45560;-77
2021/07/21 08:44:59;;;;;;;;;28.25;25.50;;;;;27.30;40.21;101764.47;4972302;28;47301;-77
2021/07/21 08:47:25;;;;;;;;;23.75;18.75;;;;;27.38;40.64;101764.75;4973711;28;45476;-78
2021/07/21 08:49:51;;;;;;;;;28.75;23.75;;;;;27.46;40.00;101765.03;4974011;28;45346;-77
2021/07/21 08:52:17;;;;;;;;;23.25;22.00;;;;;27.50;40.12;101763.81;4974267;28;45446;-77
2021/07/21 08:54:49;;;;;;;;;33.50;27.00;;;;;27.58;40.41;101752.50;4956434;28;47605;-77
2021/07/21 08:57:16;;;;;;;;;24.75;20.25;;;;;27.64;40.09;101751.16;4973738;28;45428;-77
2021/07/21 10:31:54;;;;;;;;;35.00;31.75;;;;;32.68;30.40;101747.88;4857813;29;45808;-78
2021/07/21 11:00:56;;;;;;;;;20.00;20.00;;;;;34.30;29.06;101746.81;4780869;29;45594;-76
2021/07/21 11:03:31;;;;;;;;;19.00;17.00;;;;;34.79;28.46;101740.72;4783625;29;45490;-74
2021/07/21 11:06:07;;;;;;;;;24.50;23.00;;;;;35.20;27.86;101740.81;4782247;29;45617;-75
2021/07/21 11:08:44;;;;;;;;;22.25;21.25;;;;;35.53;27.43;101739.81;4820539;29;46113;-75
2021/07/21 11:11:17;;;;;;;;;20.25;18.75;;;;;35.90;27.10;101746.63;4838024;29;45525;-74
2021/07/21 11:13:43;;;;;;;;;17.25;17.25;;;;;36.28;26.91;101730.53;4891386;28;45416;-74
2021/07/21 11:16:38;;;;;;;;;19.50;17.75;;;;;36.60;26.60;101744.22;4914185;28;45421;-74
2021/07/21 11:19:24;;;;;;;;;21.00;19.00;;;;;36.87;25.97;101729.22;4912921;28;46224;-75
2021/07/21 11:21:57;;;;;;;;;242.50;225.00;;;;;37.11;25.45;101729.06;4911054;28;45549;-75
2021/07/21 11:24:23;;;;;;;;;37.00;32.25;;;;;37.24;25.38;101736.66;4906038;28;45597;-75
2021/07/21 11:26:50;;;;;;;;;119.67;113.67;;;;;37.32;25.53;101728.38;4917155;28;47276;-73
2021/07/21 11:29:24;;;;;;;;;152.33;132.67;;;;;37.47;25.17;101733.91;4901739;28;46229;-74
2021/07/21 11:31:50;;;;;;;;;149.25;133.75;;;;;37.54;24.57;101726.72;4915562;28;45518;-73
2021/07/21 11:34:36;;;;;;;;;66.25;54.25;;;;;37.70;24.84;101735.75;4915463;28;45303;-74
2021/07/21 11:37:40;;;;;;;;;143.25;125.50;;;;;37.80;24.59;101719.94;4906710;28;45558;-75
2021/07/21 11:40:15;;;;;;;;;58.00;45.50;;;;;38.01;24.36;101722.81;4831235;29;47277;-76
2021/07/21 11:42:41;;;;;;;;;76.67;69.33;;;;;38.19;23.76;101725.16;4839196;29;47818;-74
2021/07/21 11:45:11;;;;;;;;;34.75;31.25;;;;;38.30;23.26;101715.63;4838527;29;45402;-75
2021/07/21 11:48:00;;;;;;;;;21.25;20.00;;;;;38.39;23.61;101708.16;4824309;29;45652;-75
2021/07/21 11:50:31;;;;;;;;;17.00;15.50;;;;;38.55;23.02;101709.88;4837000;29;46286;-75
2021/07/21 11:53:03;;;;;;;;;18.50;17.00;;;;;38.91;22.42;101717.22;4839129;29;45401;-75
2021/07/21 11:55:30;;;;;;;;;15.00;15.00;;;;;39.61;21.91;101719.13;4838226;29;45487;-74
2021/07/21 11:57:56;;;;;;;;;14.25;13.25;;;;;40.50;21.37;101712.06;4838514;29;45570;-75
2021/07/21 12:00:24;;;;;;;;;14.75;12.75;;;;;41.74;20.46;101710.75;4838437;29;47009;-73
2021/07/21 12:03:03;;;;;;;;;39.25;32.75;;;;;43.58;18.72;101706.38;4838516;29;45541;-74
2021/07/21 12:05:30;;;;;;;;;42.00;35.50;;;;;45.14;17.29;101711.41;4838152;29;45350;-74
2021/07/21 12:07:59;;;;;;;;;30.25;26.75;;;;;46.00;17.09;101708.19;4837788;29;45630;-73
2021/07/21 12:10:25;;;;;;;;;35.25;33.25;;;;;46.94;15.96;101713.38;4838163;29;45931;-75
2021/07/21 12:12:53;;;;;;;;;39.00;34.00;;;;;47.27;15.61;101706.13;4838233;29;45468;-75
2021/07/21 12:15:18;;;;;;;;;46.50;39.50;;;;;46.84;15.00;101722.31;4862919;28;45388;-75
2021/07/21 12:17:44;;;;;;;;;14.00;13.25;;;;;46.47;15.40;101710.81;4916204;28;45489;-75
2021/07/21 12:20:12;;;;;;;;;16.25;15.25;;;;;46.58;14.90;101709.94;4916950;28;45749;-75
2021/07/21 12:22:40;;;;;;;;;12.00;12.00;;;;;47.62;14.00;101703.09;4917020;28;45327;-74
2021/07/21 12:25:15;;;;;;;;;11.25;10.00;;;;;48.95;13.51;101707.44;4915886;28;45409;-75
2021/07/21 12:27:51;;;;;;;;;14.25;12.50;;;;;50.26;12.53;101704.88;4916359;28;45408;-76
2021/07/21 12:30:22;;;;;;;;;16.00;15.50;;;;;51.33;11.97;101703.28;4916024;28;45505;-76
2021/07/21 12:32:53;;;;;;;;;15.50;14.00;;;;;52.34;11.80;101709.59;4915730;28;45522;-75
2021/07/21 12:35:23;;;;;;;;;14.00;13.75;;;;;53.30;10.40;101709.09;4915538;28;45409;-74
2021/07/21 12:37:51;;;;;;;;;14.00;12.75;;;;;53.87;10.17;101698.94;4914752;28;45354;-75
2021/07/21 12:40:22;;;;;;;;;18.50;17.25;;;;;54.64;10.26;101699.78;4915647;28;46476;-75
2021/07/21 12:42:50;;;;;;;;;9.75;7.25;;;;;55.31;9.19;101697.47;4914239;28;45618;-74
2021/07/21 12:45:19;;;;;;;;;13.50;13.00;;;;;55.96;8.46;101704.00;4915118;28;45381;-74
2021/07/21 12:47:47;;;;;;;;;15.50;13.00;;;;;56.78;8.21;101697.25;4915518;28;45818;-75
2021/07/21 12:50:15;;;;;;;;;11.25;11.25;;;;;57.41;7.56;101702.91;4916323;28;47357;-76
2021/07/21 12:52:42;;;;;;;;;13.00;12.75;;;;;57.88;8.24;101691.94;4915526;28;45331;-74
2021/07/21 12:55:11;;;;;;;;;13.25;13.25;;;;;58.59;7.74;101688.78;4915241;28;45389;-76
2021/07/21 12:57:47;;;;;;;;;16.00;12.50;;;;;58.91;7.60;101695.03;4916053;28;45569;-75
2021/07/21 13:00:16;;;;;;;;;12.75;11.75;;;;;58.98;6.68;101695.34;4915554;28;45775;-74
2021/07/21 13:02:57;;;;;;;;;18.00;15.50;;;;;58.54;7.55;101697.41;4915681;28;45324;-76
2021/07/21 13:05:31;;;;;;;;;12.00;12.00;;;;;57.29;7.58;101695.09;4915292;28;46084;-76
2021/07/21 13:08:07;;;;;;;;;10.50;10.50;;;;;56.01;7.49;101691.84;4913139;28;45496;-72
2021/07/21 13:10:41;;;;;;;;;9.25;9.25;;;;;54.65;8.70;101687.44;4912935;28;45404;-74
2021/07/21 13:13:21;;;;;;;;;13.25;12.00;;;;;53.66;8.98;101687.16;4915209;28;45530;-74
2021/07/21 13:16:06;;;;;;;;;15.75;15.75;;;;;53.11;8.84;101691.41;4911279;28;45452;-74
2021/07/21 13:18:36;;;;;;;;;15.25;15.00;;;;;53.43;9.34;101686.03;4907185;28;45432;-74
2021/07/21 13:21:20;;;;;;;;;18.25;17.00;;;;;54.62;8.54;101676.84;4907529;28;46064;-74
2021/07/21 13:23:46;;;;;;;;;17.00;15.50;;;;;55.79;8.45;101679.41;4908876;28;45549;-74
2021/07/21 13:26:13;;;;;;;;;17.25;15.25;;;;;56.72;7.88;101684.50;4904896;28;45348;-74
2021/07/21 13:28:54;;;;;;;;;14.00;14.00;;;;;56.13;8.63;101689.31;4905063;28;45332;-74
2021/07/21 13:31:32;;;;;;;;;15.25;15.25;;;;;56.95;7.49;101684.47;4905260;28;46034;-74